Time;durP1;ratioP1;P1;durP2;ratioP2;P2;SDS_P1;SDS_P2;PMS_P1;PMS_P2;Temp;Humidity;BMP_temperature;BMP_pressure;BME280_temperature;BME280_humidity;BME280_pressure;Samples;Min_cycle;Max_cycle;Signal;HPM_P1;HPM_P2
2021/05/10 00:01:37;;;;;;;5.03;4.53;;;21.30;68.50;;;;;;5002063;28;20520;-81
2021/05/10 00:04:05;;;;;;;5.00;4.07;;;21.30;68.50;;;;;;5006253;28;20482;-81
2021/05/10 00:06:32;;;;;;;4.20;3.80;;;21.30;68.50;;;;;;5015754;28;20442;-81
2021/05/10 00:08:58;;;;;;;7.10;4.93;;;21.30;69.20;;;;;;5015694;28;20458;-81
2021/05/10 00:11:25;;;;;;;4.70;3.70;;;21.30;69.10;;;;;;5028647;28;20446;-81
2021/05/10 00:13:55;;;;;;;6.03;4.00;;;21.30;68.70;;;;;;5015776;28;20440;-81
2021/05/10 00:16:23;;;;;;;4.13;3.83;;;21.30;71.00;;;;;;5033290;28;20495;-81
2021/05/10 00:18:49;;;;;;;4.83;4.00;;;21.20;69.80;;;;;;5035179;28;20988;-81
2021/05/10 00:21:15;;;;;;;8.70;4.20;;;21.20;72.80;;;;;;5028742;28;20458;-81
2021/05/10 00:23:41;;;;;;;3.83;3.53;;;21.30;72.20;;;;;;5035198;28;20237;-81
2021/05/10 00:26:07;;;;;;;4.43;4.13;;;21.20;72.40;;;;;;5020639;28;20796;-81
2021/05/10 00:28:33;;;;;;;4.83;4.13;;;21.20;73.60;;;;;;5015029;28;20449;-81
2021/05/10 00:30:59;;;;;;;4.20;3.90;;;21.10;77.70;;;;;;4998966;28;20465;-81
2021/05/10 00:33:25;;;;;;;4.07;3.77;;;21.10;79.80;;;;;;5034832;28;20437;-81
2021/05/10 00:35:53;;;;;;;6.53;4.20;;;21.10;83.30;;;;;;5035138;28;21034;-81
2021/05/10 00:38:22;;;;;;;4.17;3.77;;;21.10;84.90;;;;;;5035998;28;20555;-81
2021/05/10 00:40:50;;;;;;;7.00;4.60;;;21.00;91.10;;;;;;5021684;28;20896;-81
2021/05/10 00:43:16;;;;;;;4.67;4.23;;;20.90;91.00;;;;;;5014907;28;20568;-81
2021/05/10 00:45:44;;;;;;;4.23;3.93;;;20.90;93.40;;;;;;5013992;28;20572;-81
2021/05/10 00:48:12;;;;;;;5.87;4.40;;;20.80;93.70;;;;;;5023377;28;20442;-81
2021/05/10 00:50:38;;;;;;;4.07;3.77;;;20.80;91.90;;;;;;5035284;28;20425;-82
2021/05/10 00:53:07;;;;;;;4.53;3.57;;;20.70;91.40;;;;;;5034684;28;20451;-82
2021/05/10 00:55:36;;;;;;;5.60;4.53;;;20.60;91.80;;;;;;5035540;28;20543;-81
2021/05/10 00:58:05;;;;;;;5.37;3.97;;;20.60;90.60;;;;;;5015563;28;20476;-81
2021/05/10 01:00:38;;;;;;;5.10;4.70;;;20.60;90.80;;;;;;5014776;28;20432;-82
2021/05/10 01:03:12;;;;;;;4.50;4.10;;;20.50;88.50;;;;;;5014339;28;20947;-81
2021/05/10 01:05:38;;;;;;;4.30;3.93;;;20.60;86.30;;;;;;5015448;28;20484;-81
2021/05/10 01:08:06;;;;;;;5.77;3.63;;;20.60;87.20;;;;;;4998378;28;20433;-82
2021/05/10 01:10:35;;;;;;;4.47;4.07;;;20.70;84.60;;;;;;5015265;28;20456;-82
2021/05/10 01:13:02;;;;;;;4.60;3.60;;;20.70;86.20;;;;;;5015769;28;20492;-81
2021/05/10 01:15:30;;;;;;;4.17;3.87;;;20.70;85.20;;;;;;4998531;28;20502;-83
2021/05/10 01:17:56;;;;;;;4.03;3.73;;;20.70;83.60;;;;;;5029237;28;20436;-81
2021/05/10 01:20:23;;;;;;;4.93;4.30;;;20.70;82.00;;;;;;5014166;28;20451;-83
2021/05/10 01:22:58;;;;;;;4.60;4.20;;;20.70;81.10;;;;;;5021351;28;20843;-81
2021/05/10 01:25:29;;;;;;;7.73;4.20;;;20.80;80.50;;;;;;4999173;28;20442;-81
2021/05/10 01:27:57;;;;;;;3.77;3.40;;;20.80;81.40;;;;;;5017620;28;20404;-82
2021/05/10 01:30:32;;;;;;;3.73;3.37;;;20.90;81.90;;;;;;5007244;28;20452;-82
2021/05/10 01:33:04;;;;;;;4.53;3.63;;;20.90;82.30;;;;;;5014953;28;20444;-82
2021/05/10 01:35:33;;;;;;;4.97;4.00;;;20.80;81.60;;;;;;5024970;28;20510;-82
2021/05/10 01:37:59;;;;;;;4.63;4.23;;;20.80;81.10;;;;;;5034401;28;20482;-82
2021/05/10 01:40:31;;;;;;;8.50;3.33;;;20.90;79.80;;;;;;5024315;28;20457;-81
2021/05/10 01:42:57;;;;;;;5.30;3.90;;;20.90;79.10;;;;;;5014703;28;20945;-81
2021/05/10 01:45:23;;;;;;;5.20;4.37;;;21.00;79.10;;;;;;5014774;28;20837;-82
2021/05/10 01:48:00;;;;;;;4.90;3.93;;;21.00;76.90;;;;;;5033419;28;20455;-81
2021/05/10 01:50:27;;;;;;;5.10;3.73;;;21.00;75.20;;;;;;5031820;28;20950;-82
2021/05/10 01:52:58;;;;;;;4.10;3.40;;;21.10;74.40;;;;;;5016246;28;20978;-82
2021/05/10 01:55:26;;;;;;;5.43;3.17;;;21.20;73.80;;;;;;5030006;28;20588;-82
2021/05/10 01:57:57;;;;;;;3.90;3.70;;;21.20;73.70;;;;;;5014689;28;20461;-82
2021/05/10 02:00:32;;;;;;;5.07;4.53;;;21.20;72.50;;;;;;5014463;28;20964;-82
2021/05/10 02:03:03;;;;;;;4.30;4.00;;;21.30;73.30;;;;;;5014863;28;20506;-82
2021/05/10 02:05:29;;;;;;;4.73;4.33;;;21.30;71.70;;;;;;5028045;28;20472;-82
2021/05/10 02:07:58;;;;;;;4.47;3.93;;;21.40;71.50;;;;;;5014426;28;20483;-81
2021/05/10 02:10:41;;;;;;;5.23;4.73;;;21.40;70.50;;;;;;4999494;28;20487;-82
2021/05/10 02:13:08;;;;;;;4.70;4.40;;;21.50;70.60;;;;;;4997326;28;20426;-83
2021/05/10 02:15:36;;;;;;;4.80;4.50;;;21.60;70.70;;;;;;5016185;28;20818;-83
2021/05/10 02:18:05;;;;;;;4.47;4.17;;;21.60;70.10;;;;;;5035152;28;20546;-94
2021/05/10 02:20:32;;;;;;;4.80;4.40;;;21.50;70.60;;;;;;5029692;28;20443;-92
2021/05/10 02:23:04;;;;;;;4.97;4.50;;;21.50;69.60;;;;;;5021758;28;20441;-95
2021/05/10 02:25:33;;;;;;;4.33;3.90;;;21.50;69.90;;;;;;5035142;28;20414;-95
2021/05/10 02:28:00;;;;;;;5.00;4.60;;;21.50;70.00;;;;;;5035107;28;20477;-96
2021/05/10 02:30:31;;;;;;;4.73;4.33;;;21.50;69.60;;;;;;5036140;28;20475;-95
2021/05/10 02:32:58;;;;;;;4.93;4.50;;;21.50;69.90;;;;;;5035015;28;20517;-93
2021/05/10 02:35:24;;;;;;;5.23;4.83;;;21.50;70.30;;;;;;5035819;28;20523;-95
2021/05/10 02:37:54;;;;;;;4.67;4.07;;;21.40;70.90;;;;;;5015821;28;20428;-95
2021/05/10 02:40:22;;;;;;;5.00;4.50;;;21.40;70.20;;;;;;5014855;28;20476;-92
2021/05/10 02:42:48;;;;;;;4.80;4.50;;;21.50;70.40;;;;;;4998607;28;20436;-93
2021/05/10 02:45:16;;;;;;;4.67;4.27;;;21.40;70.00;;;;;;4999103;28;20434;-96
2021/05/10 02:47:42;;;;;;;4.37;4.07;;;21.50;70.70;;;;;;5018884;28;20440;-96
2021/05/10 02:50:11;;;;;;;4.90;3.90;;;21.50;70.40;;;;;;5035341;28;20436;-96
2021/05/10 02:52:37;;;;;;;4.17;3.87;;;21.50;70.90;;;;;;5034740;28;20434;-92
2021/05/10 02:55:07;;;;;;;5.40;4.33;;;21.40;70.80;;;;;;5035818;28;20475;-91
2021/05/10 02:57:36;;;;;;;5.17;4.70;;;21.40;70.50;;;;;;5028509;28;20425;-96
2021/05/10 03:00:08;;;;;;;3.90;3.20;;;21.40;70.70;;;;;;5016003;28;20423;-95
2021/05/10 03:02:35;;;;;;;4.20;3.80;;;21.40;71.10;;;;;;5015700;28;20403;-90
2021/05/10 03:05:04;;;;;;;6.70;4.60;;;21.40;71.50;;;;;;5021513;28;20986;-96
2021/05/10 03:07:31;;;;;;;4.83;4.37;;;21.40;71.50;;;;;;5023498;28;21122;-96
2021/05/10 03:10:02;;;;;;;4.53;4.23;;;21.30;72.60;;;;;;5007516;28;20445;-96
2021/05/10 03:12:28;;;;;;;7.23;3.33;;;21.30;71.80;;;;;;5031023;28;20427;-96
2021/05/10 03:14:56;;;;;;;5.27;4.87;;;21.30;72.30;;;;;;5033756;28;20536;-96
2021/05/10 03:17:25;;;;;;;4.93;4.50;;;21.20;73.00;;;;;;5051560;28;20433;-96
2021/05/10 03:19:51;;;;;;;4.60;4.30;;;21.20;72.30;;;;;;5055829;22;20434;-76
2021/05/10 03:22:17;;;;;;;5.90;5.40;;;21.10;72.50;;;;;;5034991;28;20431;-76
2021/05/10 03:24:43;;;;;;;5.60;5.10;;;21.10;72.70;;;;;;5035779;28;20531;-76
2021/05/10 03:27:10;;;;;;;5.30;4.90;;;20.90;73.10;;;;;;5051263;28;20843;-76
2021/05/10 03:29:36;;;;;;;4.30;4.10;;;20.90;73.40;;;;;;5051096;28;20451;-76
2021/05/10 03:32:04;;;;;;;5.80;5.50;;;20.90;73.30;;;;;;5040275;28;20474;-76
2021/05/10 03:34:31;;;;;;;5.33;4.90;;;20.80;73.90;;;;;;5051981;28;20426;-76
2021/05/10 03:36:57;;;;;;;6.00;5.50;;;20.90;74.00;;;;;;5034096;28;20429;-74
2021/05/10 03:39:23;;;;;;;5.30;5.00;;;20.90;73.90;;;;;;5034082;28;20443;-74
2021/05/10 03:41:49;;;;;;;5.10;4.63;;;20.90;74.40;;;;;;5035393;28;20431;-74
2021/05/10 03:44:16;;;;;;;6.53;5.60;;;20.80;74.80;;;;;;5043995;28;20798;-74
2021/05/10 03:46:44;;;;;;;5.80;5.37;;;20.80;75.10;;;;;;5055077;28;20472;-74
2021/05/10 03:49:11;;;;;;;5.87;5.47;;;20.80;75.30;;;;;;5036752;28;20458;-74
2021/05/10 03:51:37;;;;;;;6.10;5.50;;;20.80;75.00;;;;;;5006989;28;20451;-73
2021/05/10 03:54:03;;;;;;;6.07;5.57;;;20.80;75.60;;;;;;5053715;28;20474;-74
2021/05/10 03:56:30;;;;;;;6.70;5.30;;;20.80;75.20;;;;;;5044265;28;20547;-74
2021/05/10 03:58:56;;;;;;;5.17;4.90;;;20.70;75.80;;;;;;5034785;28;20493;-74
2021/05/10 04:01:22;;;;;;;5.90;5.40;;;20.70;75.80;;;;;;5035585;28;20471;-74
2021/05/10 04:06:41;;;;;;;6.10;5.50;;;20.90;75.40;;;;;;5052397;28;20485;-74
2021/05/10 04:09:36;;;;;;;6.17;5.67;;;20.80;75.70;;;;;;5041336;28;20988;-74
2021/05/10 04:14:47;;;;;;;6.40;5.07;;;20.80;75.10;;;;;;5014942;28;20515;-74
2021/05/10 04:17:13;;;;;;;6.07;5.47;;;20.80;77.30;;;;;;5013668;28;20564;-74
2021/05/10 04:19:39;;;;;;;6.17;5.50;;;20.80;78.70;;;;;;5014314;28;20512;-74
2021/05/10 04:22:05;;;;;;;5.10;4.80;;;20.70;80.20;;;;;;5031255;28;20494;-74
2021/05/10 04:24:32;;;;;;;5.03;4.63;;;20.60;82.60;;;;;;5033302;28;20442;-74
2021/05/10 04:26:59;;;;;;;5.40;4.53;;;20.50;82.30;;;;;;5033096;28;20408;-75
2021/05/10 04:29:27;;;;;;;4.20;3.90;;;20.60;84.10;;;;;;5033358;28;20495;-74
2021/05/10 04:31:53;;;;;;;5.73;5.30;;;20.60;83.70;;;;;;5053118;28;20424;-74
2021/05/10 04:34:21;;;;;;;6.50;6.10;;;20.60;83.50;;;;;;5036409;28;20431;-74
2021/05/10 04:36:47;;;;;;;5.80;4.80;;;20.60;82.90;;;;;;5023609;28;20550;-75
2021/05/10 04:39:15;;;;;;;7.10;6.40;;;20.60;82.90;;;;;;5033985;28;20432;-75
2021/05/10 04:41:41;;;;;;;7.40;5.07;;;20.50;82.80;;;;;;5040593;28;20523;-75
2021/05/10 04:44:08;;;;;;;4.67;4.33;;;20.50;84.30;;;;;;5032359;28;20429;-75
2021/05/10 04:46:34;;;;;;;8.47;5.93;;;20.50;83.70;;;;;;5025251;28;20476;-76
2021/05/10 04:49:00;;;;;;;5.80;5.40;;;20.50;83.20;;;;;;5052009;28;20500;-75
2021/05/10 04:51:29;;;;;;;4.73;4.30;;;20.50;83.00;;;;;;5034310;28;20459;-74
2021/05/10 04:53:55;;;;;;;5.23;4.93;;;20.60;81.00;;;;;;5020697;28;20442;-76
2021/05/10 04:56:21;;;;;;;5.13;4.63;;;20.60;80.80;;;;;;5035677;28;20466;-74
2021/05/10 04:58:47;;;;;;;6.07;5.50;;;20.60;80.30;;;;;;5052894;28;20428;-74
2021/05/10 05:01:13;;;;;;;4.87;4.57;;;20.70;80.90;;;;;;5051863;28;20430;-75
2021/05/10 05:03:39;;;;;;;6.43;5.50;;;20.70;80.10;;;;;;5050173;28;20505;-74
2021/05/10 05:06:06;;;;;;;5.60;4.40;;;20.70;80.00;;;;;;5040405;28;20958;-74
2021/05/10 05:08:32;;;;;;;9.03;5.67;;;20.70;80.70;;;;;;5015372;28;20873;-74
2021/05/10 05:11:03;;;;;;;5.67;5.17;;;20.70;80.30;;;;;;5015836;28;20786;-74
2021/05/10 05:13:32;;;;;;;5.90;5.40;;;20.70;81.10;;;;;;5046874;28;20443;-75
2021/05/10 05:16:00;;;;;;;6.30;5.67;;;20.70;81.00;;;;;;5031680;28;20467;-74
2021/05/10 05:18:27;;;;;;;5.47;5.17;;;20.70;80.70;;;;;;5032542;28;20425;-74
2021/05/10 05:20:58;;;;;;;6.30;5.80;;;20.70;81.10;;;;;;5011998;28;20476;-74
2021/05/10 05:23:26;;;;;;;5.83;5.17;;;20.70;81.40;;;;;;5028568;28;20470;-74
2021/05/10 05:26:18;;;;;;;6.13;5.77;;;20.80;81.40;;;;;;5018251;28;20520;-74
2021/05/10 05:28:47;;;;;;;4.70;4.40;;;20.70;80.70;;;;;;5035812;28;20839;-76
2021/05/10 05:31:14;;;;;;;4.37;3.97;;;20.80;81.40;;;;;;5047516;28;20442;-76
2021/05/10 05:33:40;;;;;;;5.40;4.90;;;20.80;82.00;;;;;;5040665;28;20465;-74
2021/05/10 05:36:07;;;;;;;5.97;5.30;;;20.70;81.10;;;;;;5044891;28;20473;-76
2021/05/10 05:38:35;;;;;;;5.50;5.10;;;20.70;82.20;;;;;;5041883;28;20426;-75
2021/05/10 05:41:10;;;;;;;5.97;5.57;;;20.60;81.80;;;;;;5015223;28;20443;-75
2021/05/10 05:43:37;;;;;;;5.67;5.17;;;20.70;82.00;;;;;;5023762;28;20487;-75
2021/05/10 05:46:11;;;;;;;7.03;5.43;;;20.60;82.50;;;;;;5033949;28;20419;-75
2021/05/10 05:48:37;;;;;;;4.90;4.60;;;20.70;82.80;;;;;;5036814;28;20853;-75
2021/05/10 05:51:04;;;;;;;5.77;5.47;;;20.60;82.00;;;;;;5031101;28;20438;-75
2021/05/10 05:53:30;;;;;;;5.87;5.40;;;20.50;82.90;;;;;;5043161;28;20431;-74
2021/05/10 05:55:56;;;;;;;6.80;5.60;;;20.60;82.60;;;;;;5029835;28;20550;-75
2021/05/10 05:58:23;;;;;;;5.13;4.83;;;20.60;82.90;;;;;;5045854;28;20438;-74
2021/05/10 06:00:49;;;;;;;4.37;3.90;;;20.50;83.70;;;;;;5036182;28;20451;-74
2021/05/10 06:03:17;;;;;;;5.33;4.93;;;20.40;84.50;;;;;;5030956;28;20474;-74
2021/05/10 06:05:43;;;;;;;3.97;3.77;;;20.40;84.60;;;;;;5033821;28;20488;-74
2021/05/10 06:08:09;;;;;;;6.40;6.00;;;20.40;85.00;;;;;;5020724;28;20448;-74
2021/05/10 06:10:38;;;;;;;7.90;5.83;;;20.40;84.40;;;;;;5026841;28;20452;-73
2021/05/10 06:13:04;;;;;;;6.27;5.70;;;20.40;85.40;;;;;;5028853;28;20438;-73
2021/05/10 06:15:33;;;;;;;6.50;5.90;;;20.50;85.80;;;;;;5038681;28;20467;-75
2021/05/10 06:18:00;;;;;;;5.50;5.00;;;20.50;85.50;;;;;;5043371;28;20787;-76
2021/05/10 06:20:27;;;;;;;6.30;5.60;;;20.60;86.40;;;;;;5012301;28;20495;-74
2021/05/10 06:22:54;;;;;;;7.00;6.37;;;20.60;84.80;;;;;;5050321;28;20422;-73
2021/05/10 06:25:28;;;;;;;5.43;5.13;;;20.70;84.30;;;;;;5027748;28;20455;-75
2021/05/10 06:27:55;;;;;;;5.63;5.13;;;20.60;83.70;;;;;;5044674;28;20436;-74
2021/05/10 06:30:21;;;;;;;5.30;4.90;;;20.60;84.70;;;;;;5044331;28;20464;-75
2021/05/10 06:32:51;;;;;;;6.87;6.37;;;20.60;84.90;;;;;;5029587;28;20445;-76
2021/05/10 06:35:18;;;;;;;5.40;5.10;;;20.50;86.50;;;;;;5014727;28;20522;-76
2021/05/10 06:37:44;;;;;;;6.13;5.67;;;20.60;87.40;;;;;;5040205;28;21083;-76
2021/05/10 06:40:12;;;;;;;4.70;4.20;;;20.70;86.70;;;;;;5015163;28;20531;-76
2021/05/10 06:42:38;;;;;;;4.60;4.40;;;20.60;87.40;;;;;;5021939;28;20466;-76
2021/05/10 06:45:09;;;;;;;5.07;4.67;;;20.70;87.80;;;;;;5042768;28;20423;-76
2021/05/10 06:47:39;;;;;;;5.23;4.93;;;20.90;87.10;;;;;;5025576;28;20510;-76
2021/05/10 06:50:11;;;;;;;6.37;5.10;;;20.90;86.10;;;;;;5025529;28;20477;-76
2021/05/10 06:52:40;;;;;;;5.53;5.13;;;21.00;85.60;;;;;;5047228;28;20987;-76
2021/05/10 06:55:08;;;;;;;6.13;5.63;;;21.10;86.50;;;;;;5014447;28;20462;-76
2021/05/10 06:57:34;;;;;;;5.43;4.47;;;21.20;86.80;;;;;;5015260;28;20426;-75
2021/05/10 07:00:04;;;;;;;6.20;5.70;;;21.30;87.10;;;;;;5018849;28;20484;-76
2021/05/10 07:02:30;;;;;;;6.60;5.30;;;21.50;85.80;;;;;;5014211;28;20986;-76
2021/05/10 07:04:57;;;;;;;5.90;5.60;;;21.60;85.70;;;;;;5010152;28;20849;-76
2021/05/10 07:07:23;;;;;;;4.73;4.17;;;21.60;85.80;;;;;;5025169;28;20430;-75
2021/05/10 07:09:52;;;;;;;5.40;5.10;;;21.60;85.60;;;;;;5020849;28;20500;-76
2021/05/10 07:12:21;;;;;;;6.07;5.13;;;21.50;84.30;;;;;;5025803;28;20453;-76
2021/05/10 07:14:47;;;;;;;5.60;5.10;;;21.50;84.30;;;;;;5021545;28;21009;-76
2021/05/10 07:17:14;;;;;;;4.17;3.87;;;21.60;85.80;;;;;;4988216;28;20442;-76
2021/05/10 07:19:41;;;;;;;6.40;5.60;;;21.90;84.30;;;;;;5023955;28;20827;-74
2021/05/10 07:22:07;;;;;;;5.00;4.70;;;21.90;82.20;;;;;;5031378;28;20763;-76
2021/05/10 07:24:42;;;;;;;5.67;4.97;;;22.00;82.00;;;;;;5010608;28;20442;-76
2021/05/10 07:27:09;;;;;;;4.90;4.60;;;22.20;83.20;;;;;;5030772;28;20836;-76
2021/05/10 07:29:38;;;;;;;6.53;4.30;;;22.30;80.40;;;;;;5029337;28;20530;-76
2021/05/10 07:32:04;;;;;;;5.20;4.90;;;22.30;81.30;;;;;;5011049;28;20419;-76
2021/05/10 07:34:30;;;;;;;4.40;4.00;;;22.30;81.40;;;;;;5025124;28;20772;-75
2021/05/10 07:36:57;;;;;;;5.93;4.53;;;22.20;80.70;;;;;;5019976;28;20890;-74
2021/05/10 07:39:27;;;;;;;4.57;4.37;;;22.20;81.70;;;;;;5011642;28;20453;-76
2021/05/10 07:41:58;;;;;;;5.83;5.53;;;21.90;81.50;;;;;;5030948;28;20792;-76
2021/05/10 07:44:24;;;;;;;4.17;3.87;;;21.70;79.70;;;;;;5016658;28;20429;-74
2021/05/10 07:46:52;;;;;;;5.57;5.07;;;21.60;80.20;;;;;;5032312;28;20960;-77
2021/05/10 07:49:18;;;;;;;4.47;4.07;;;21.30;81.10;;;;;;5031985;28;20462;-77
2021/05/10 07:51:44;;;;;;;5.07;3.60;;;21.20;82.70;;;;;;5031177;28;20452;-77
2021/05/10 07:54:13;;;;;;;5.33;4.77;;;21.10;83.30;;;;;;5031277;28;20986;-72
2021/05/10 07:56:39;;;;;;;5.43;4.93;;;20.90;83.80;;;;;;5022570;28;22070;-76
2021/05/10 07:59:09;;;;;;;7.60;5.00;;;20.80;85.80;;;;;;5015780;28;20529;-77
2021/05/10 08:01:38;;;;;;;5.40;4.97;;;20.80;86.60;;;;;;5019375;28;20439;-75
2021/05/10 08:04:06;;;;;;;5.40;5.00;;;20.60;88.30;;;;;;5031418;28;20787;-75
2021/05/10 08:06:34;;;;;;;4.40;4.13;;;20.60;87.90;;;;;;5031132;28;20830;-76
2021/05/10 08:09:00;;;;;;;3.97;3.00;;;20.60;88.80;;;;;;5012163;28;20456;-76
2021/05/10 08:11:31;;;;;;;4.60;4.30;;;20.60;88.80;;;;;;5029739;28;20442;-73
2021/05/10 08:13:58;;;;;;;3.77;3.57;;;20.60;87.90;;;;;;5025892;28;20446;-76
2021/05/10 08:16:28;;;;;;;5.13;4.87;;;20.50;87.80;;;;;;5018255;28;20475;-76
2021/05/10 08:19:00;;;;;;;4.70;4.50;;;20.60;87.40;;;;;;5030350;28;20472;-77
2021/05/10 08:21:26;;;;;;;3.80;3.40;;;20.60;88.90;;;;;;5030093;28;20468;-76
2021/05/10 08:23:53;;;;;;;3.90;3.70;;;20.50;88.40;;;;;;5030356;28;20514;-76
2021/05/10 08:26:20;;;;;;;5.37;5.07;;;20.40;90.20;;;;;;5010893;28;21117;-76
2021/05/10 08:28:46;;;;;;;3.90;3.70;;;20.40;89.60;;;;;;5028368;28;20449;-76
2021/05/10 08:31:13;;;;;;;4.20;4.00;;;20.50;90.20;;;;;;5013444;28;20454;-75
2021/05/10 08:33:39;;;;;;;3.00;2.80;;;20.40;90.30;;;;;;5030319;28;20955;-76
2021/05/10 08:36:05;;;;;;;3.00;2.80;;;20.30;91.60;;;;;;5031733;28;20517;-76
2021/05/10 08:38:33;;;;;;;3.37;3.17;;;20.20;91.40;;;;;;5027297;28;20439;-74
2021/05/10 08:40:59;;;;;;;4.87;4.57;;;20.20;91.60;;;;;;5031790;28;20441;-75
2021/05/10 08:43:26;;;;;;;2.87;2.77;;;20.10;92.10;;;;;;5010540;28;20431;-77
2021/05/10 08:45:56;;;;;;;4.10;3.80;;;20.00;92.10;;;;;;5029449;28;20435;-75
2021/05/10 08:48:24;;;;;;;3.67;3.43;;;20.00;92.60;;;;;;5019048;28;20447;-74
2021/05/10 08:50:51;;;;;;;2.83;2.63;;;19.90;92.70;;;;;;5029035;28;20449;-76
2021/05/10 08:53:35;;;;;;;4.40;4.00;;;19.90;92.90;;;;;;5025835;28;20967;-77
2021/05/10 08:56:05;;;;;;;4.00;3.80;;;20.00;93.30;;;;;;5021799;28;21648;-76
2021/05/10 08:58:44;;;;;;;3.80;3.60;;;19.90;93.70;;;;;;5019639;28;20485;-76
2021/05/10 09:01:14;;;;;;;3.60;3.40;;;20.00;93.80;;;;;;5030531;28;20457;-75
2021/05/10 09:03:50;;;;;;;4.20;4.00;;;20.20;92.70;;;;;;5023103;28;20481;-75
2021/05/10 09:06:34;;;;;;;3.60;2.93;;;20.20;91.00;;;;;;5028371;28;20583;-77
2021/05/10 09:09:07;;;;;;;4.00;3.07;;;20.20;91.20;;;;;;5029927;28;20467;-75
2021/05/10 09:11:57;;;;;;;4.10;3.90;;;20.30;90.70;;;;;;5028777;28;20510;-76
2021/05/10 09:14:34;;;;;;;3.10;2.90;;;20.40;90.40;;;;;;5022873;28;20443;-76
2021/05/10 09:17:00;;;;;;;4.73;4.00;;;20.50;91.20;;;;;;5028652;28;20498;-76
2021/05/10 09:19:51;;;;;;;3.03;2.87;;;20.50;90.80;;;;;;5029599;28;20494;-76
2021/05/10 09:22:18;;;;;;;3.87;3.67;;;20.60;89.90;;;;;;4989595;28;20824;-76
2021/05/10 09:24:53;;;;;;;4.43;4.03;;;20.50;90.00;;;;;;4992887;28;20435;-76
2021/05/10 09:27:24;;;;;;;5.03;4.53;;;20.50;90.40;;;;;;5008666;28;20435;-75
2021/05/10 09:30:20;;;;;;;4.50;4.20;;;20.40;89.80;;;;;;5002762;28;20449;-76
2021/05/10 09:32:52;;;;;;;4.90;4.60;;;20.30;91.60;;;;;;5003532;28;20432;-76
2021/05/10 09:35:21;;;;;;;5.20;4.80;;;20.40;92.40;;;;;;5008120;28;20480;-77
2021/05/10 09:38:00;;;;;;;4.90;4.60;;;20.40;91.40;;;;;;4995326;28;20425;-76
2021/05/10 09:40:29;;;;;;;5.33;3.67;;;20.50;91.40;;;;;;4994865;28;20451;-75
2021/05/10 09:43:00;;;;;;;4.50;4.23;;;20.50;91.30;;;;;;5005242;28;20440;-76
2021/05/10 09:45:30;;;;;;;3.60;3.30;;;20.40;90.50;;;;;;4995856;28;20444;-75
2021/05/10 09:48:30;;;;;;;3.93;3.73;;;20.40;89.80;;;;;;4976749;28;21134;-75
2021/05/10 09:51:03;;;;;;;3.60;3.40;;;20.30;90.40;;;;;;4995483;28;20789;-74
2021/05/10 09:53:44;;;;;;;4.97;4.67;;;20.20;91.20;;;;;;5001483;28;20444;-75
2021/05/10 09:56:29;;;;;;;4.50;3.57;;;20.20;90.90;;;;;;4994502;28;21099;-72
2021/05/10 09:59:04;;;;;;;5.23;4.30;;;20.20;90.50;;;;;;5000953;28;20453;-75
2021/05/10 10:01:48;;;;;;;5.03;4.53;;;20.20;90.30;;;;;;4974328;28;20444;-76
2021/05/10 10:04:18;;;;;;;3.37;3.17;;;20.20;90.50;;;;;;4976281;28;20454;-77
2021/05/10 10:06:49;;;;;;;3.43;3.13;;;20.10;90.40;;;;;;4996720;28;20535;-75
2021/05/10 10:09:16;;;;;;;4.73;4.33;;;20.20;90.70;;;;;;4992908;28;20549;-77
2021/05/10 10:11:42;;;;;;;4.80;4.37;;;20.30;91.00;;;;;;5003158;28;20459;-75
2021/05/10 10:14:10;;;;;;;4.20;3.90;;;20.40;90.60;;;;;;5012092;28;20452;-75
2021/05/10 10:16:37;;;;;;;3.40;3.10;;;20.50;90.20;;;;;;4989948;28;20473;-77
2021/05/10 10:19:07;;;;;;;4.20;3.90;;;20.60;89.10;;;;;;4999197;28;20480;-75
2021/05/10 10:21:36;;;;;;;5.57;4.50;;;20.60;89.70;;;;;;5026161;28;20467;-74
2021/05/10 10:24:06;;;;;;;4.23;4.03;;;20.50;89.40;;;;;;5017276;28;20444;-76
2021/05/10 10:26:34;;;;;;;4.00;3.40;;;20.30;89.20;;;;;;5011747;28;20476;-75
2021/05/10 10:29:11;;;;;;;5.73;5.03;;;20.20;89.80;;;;;;5025134;28;20839;-77
2021/05/10 10:31:49;;;;;;;5.27;4.97;;;20.20;89.80;;;;;;5023541;28;20449;-75
2021/05/10 10:34:24;;;;;;;6.03;3.77;;;20.00;90.70;;;;;;5039856;28;20430;-74
2021/05/10 10:36:55;;;;;;;5.20;4.70;;;19.80;91.20;;;;;;5024748;28;20470;-75
2021/05/10 10:39:32;;;;;;;5.07;4.70;;;19.60;91.90;;;;;;5027283;28;20447;-73
2021/05/10 10:42:03;;;;;;;4.07;3.67;;;19.50;92.00;;;;;;5027518;28;20435;-76
2021/05/10 10:44:33;;;;;;;9.03;4.17;;;19.30;92.90;;;;;;5028231;28;20428;-76
2021/05/10 10:47:01;;;;;;;4.50;4.20;;;19.30;93.20;;;;;;5009697;28;20856;-76
2021/05/10 10:49:31;;;;;;;3.67;3.47;;;19.30;94.10;;;;;;5020492;28;20466;-77
2021/05/10 10:51:58;;;;;;;4.50;4.20;;;19.30;94.70;;;;;;5015458;28;20439;-76
2021/05/10 10:54:26;;;;;;;4.63;4.40;;;19.30;95.10;;;;;;5028205;28;20472;-76
2021/05/10 10:56:55;;;;;;;4.20;3.90;;;19.30;95.00;;;;;;5043420;28;20887;-75
2021/05/10 10:59:27;;;;;;;4.07;3.80;;;19.30;95.50;;;;;;5022235;28;20475;-75
2021/05/10 11:01:57;;;;;;;4.57;4.27;;;19.20;95.60;;;;;;5013326;28;20452;-76
2021/05/10 11:04:26;;;;;;;4.30;4.10;;;19.30;96.30;;;;;;5023760;28;20418;-75
2021/05/10 11:06:56;;;;;;;4.97;4.00;;;19.60;96.20;;;;;;5023932;28;20548;-75
2021/05/10 11:09:52;;;;;;;4.40;4.20;;;20.00;96.70;;;;;;5006236;28;20455;-75
2021/05/10 11:12:50;;;;;;;4.47;4.00;;;20.40;94.30;;;;;;5026926;28;20731;-75
2021/05/10 11:15:35;;;;;;;4.23;4.00;;;20.50;92.90;;;;;;5017751;28;20530;-75
2021/05/10 11:18:03;;;;;;;3.97;3.77;;;20.70;93.40;;;;;;5024998;28;20948;-75
2021/05/10 11:20:43;;;;;;;4.10;3.90;;;20.70;93.10;;;;;;5004615;28;20467;-75
2021/05/10 11:23:25;;;;;;;4.97;4.70;;;20.80;93.20;;;;;;5017787;28;20924;-74
2021/05/10 11:25:55;;;;;;;4.40;4.20;;;20.90;92.60;;;;;;5020954;28;20502;-75
2021/05/10 11:28:24;;;;;;;4.90;4.60;;;21.00;93.90;;;;;;5009905;28;20446;-74
2021/05/10 11:31:02;;;;;;;4.60;4.30;;;21.10;91.70;;;;;;5012737;28;20802;-74
2021/05/10 11:33:53;;;;;;;5.30;4.93;;;21.10;91.50;;;;;;5009208;28;20467;-74
2021/05/10 11:36:24;;;;;;;5.30;5.00;;;21.00;91.60;;;;;;5023867;28;20457;-74
2021/05/10 11:39:05;;;;;;;5.00;4.60;;;20.90;91.70;;;;;;5026122;28;20432;-75
2021/05/10 11:41:43;;;;;;;5.17;4.97;;;21.00;93.00;;;;;;5026021;28;20440;-74
2021/05/10 11:44:35;;;;;;;6.33;5.93;;;20.90;93.20;;;;;;5009719;28;20530;-75
2021/05/10 11:47:06;;;;;;;5.67;5.27;;;20.80;91.80;;;;;;5028691;28;20451;-75
2021/05/10 11:49:38;;;;;;;5.77;5.20;;;20.70;92.30;;;;;;5028027;28;20471;-74
2021/05/10 11:52:14;;;;;;;5.20;4.90;;;20.40;92.80;;;;;;5027053;28;20459;-75
2021/05/10 11:54:46;;;;;;;5.30;5.00;;;20.30;94.20;;;;;;5029686;28;20454;-74
2021/05/10 11:57:14;;;;;;;5.70;5.30;;;20.30;93.70;;;;;;5023188;28;20428;-74
2021/05/10 11:59:49;;;;;;;3.93;3.70;;;20.00;93.30;;;;;;5029193;28;20840;-74
2021/05/10 12:02:18;;;;;;;4.60;4.40;;;20.00;94.20;;;;;;5028507;28;20431;-74
2021/05/10 12:04:48;;;;;;;5.33;4.83;;;19.80;95.60;;;;;;5027238;28;20507;-75
2021/05/10 12:07:15;;;;;;;4.47;4.27;;;19.70;96.50;;;;;;4995146;28;21135;-75
2021/05/10 12:09:42;;;;;;;10.93;3.53;;;19.60;96.50;;;;;;5028935;28;20438;-75
2021/05/10 12:12:17;;;;;;;4.43;4.03;;;19.60;98.00;;;;;;5009456;28;20446;-75
2021/05/10 12:14:46;;;;;;;4.10;3.90;;;19.30;97.50;;;;;;5030070;28;21091;-74
2021/05/10 12:17:14;;;;;;;5.23;4.70;;;19.00;97.70;;;;;;5028414;28;21013;-75
2021/05/10 12:20:12;;;;;;;4.60;4.20;;;18.60;98.90;;;;;;5027406;28;20448;-75
2021/05/10 12:22:42;;;;;;;4.30;3.90;;;18.30;99.90;;;;;;5034640;28;20440;-74
2021/05/10 12:25:11;;;;;;;4.53;4.20;;;18.20;99.90;;;;;;5022812;28;20526;-76
2021/05/10 12:27:40;;;;;;;4.23;3.90;;;18.10;99.90;;;;;;5013155;28;20439;-74
2021/05/10 12:30:17;;;;;;;4.03;3.73;;;18.00;99.90;;;;;;5015635;28;20459;-74
2021/05/10 12:32:46;;;;;;;4.67;3.20;;;17.90;99.90;;;;;;5026684;28;20887;-74
2021/05/10 12:35:20;;;;;;;4.27;3.93;;;17.90;99.90;;;;;;5038165;28;20450;-75
2021/05/10 12:37:48;;;;;;;3.50;3.30;;;17.80;99.90;;;;;;5028768;28;20432;-74
2021/05/10 12:40:23;;;;;;;4.00;3.77;;;17.80;99.90;;;;;;5024178;28;21088;-74
2021/05/10 12:43:09;;;;;;;3.30;3.10;;;17.90;99.90;;;;;;4980418;28;20433;-75
2021/05/10 12:45:39;;;;;;;3.40;3.10;;;17.90;99.90;;;;;;5039022;28;20813;-75
2021/05/10 12:48:15;;;;;;;4.90;4.60;;;17.80;99.90;;;;;;5032212;28;20427;-74
2021/05/10 12:50:49;;;;;;;3.47;3.00;;;17.80;99.90;;;;;;5032234;28;20572;-75
2021/05/10 12:53:29;;;;;;;3.80;3.07;;;17.70;99.90;;;;;;5033962;28;20452;-74
2021/05/10 12:56:02;;;;;;;4.00;3.73;;;17.70;99.90;;;;;;4999861;28;20423;-74
2021/05/10 12:58:32;;;;;;;3.50;3.20;;;17.70;99.90;;;;;;5033821;28;20477;-73
2021/05/10 13:01:11;;;;;;;2.83;2.63;;;17.70;99.90;;;;;;5024899;28;20443;-75
2021/05/10 13:03:38;;;;;;;4.63;4.23;;;17.70;99.90;;;;;;5015553;28;20436;-74
2021/05/10 13:06:05;;;;;;;3.80;3.50;;;17.70;99.90;;;;;;5032971;28;20527;-74
2021/05/10 13:08:48;;;;;;;3.40;3.20;;;17.70;99.90;;;;;;4998309;28;20490;-74